Portada
METAR-TAF:

METAR-TAF

Aeropuertos :

Türkmenabat, Turkmenistán

latitud: 39-05-00N, longitud: 063-36-48E, altitud: 192 m

Observación

El informe se hizo hace 56 minutos, a las 13:00 UTC
Viento 16 kt del norte
Temperatura 31°C
Humedad 12%
Presión 1014 hPa
Visibilidad 10 km o más
sin nubes por debajo de 1500 m y sin presencia de cumulonimbus.

METAR: UTAV 111300Z 36016KT CAVOK 31/M02 Q1014 R31/CLRD70 NOSIG

Hora: 18:56 (13:56 UTC)

Pronóstico

El informe se hizo hace 3 horas y 26 minutos, a las 10:30 UTC
Pronóstico válido del 11 a las 12 UTC al 12 a las 12 UTC
Viento 14 kt del noroeste
Visibilidad 10 km o más
sin nubes por debajo de 1500 m y sin presencia de cumulonimbus.
Temporalmente
del 11 a las 12 UTC al 11 a las 18 UTC
Viento 14 kt del norte-noreste con ráfagas de 24 kt
Visibilidad: 3000 m
Nubes dispersas a una altura de 5000 ft
Ventisca baja de polvo

TAF: UTAV 111030Z 1112/1212 32014KT CAVOK TEMPO 1112/1118 02014G24KT 3000 DRDU SCT050

Observaciones y pronósticos meteorológicos de más de 4000 aeropuertos (mensajes METAR y TAF).

Los puntos amarillos y rojos representan las estaciones disponibles.

Ponga el ratón en el punto deseado para ver el nombre de la estación.

Haga clic para ver las observaciones y los pronósticos meteorológicos.

Para cambiar el mapa : haga clic en los botones verdes con una cruz de color negro para hacer un zoom, en el botón verde con un guión para alejar o en las flechas verdes para mapas adyacentes.


METAR-TAF: